createdAt,value
2023-06-01T00:00:11.863Z,5.10
2023-06-01T00:02:41.556Z,5.53
2023-06-01T00:05:08.567Z,6.57
2023-06-01T00:07:36.033Z,4.17
2023-06-01T00:10:02.851Z,6.40
2023-06-01T00:12:29.566Z,5.97
2023-06-01T00:14:56.304Z,7.13
2023-06-01T00:17:24.137Z,7.30
2023-06-01T00:19:50.994Z,6.13
2023-06-01T00:22:18.398Z,7.67
2023-06-01T00:24:45.103Z,9.67
2023-06-01T00:27:11.977Z,7.77
2023-06-01T00:29:38.812Z,6.33
2023-06-01T00:32:05.880Z,6.63
2023-06-01T00:34:32.604Z,6.20
2023-06-01T00:36:59.346Z,8.63
2023-06-01T00:39:26.008Z,9.20
2023-06-01T00:41:53.411Z,6.97
2023-06-01T00:44:20.089Z,7.30
2023-06-01T00:46:46.855Z,8.30
2023-06-01T00:49:13.560Z,7.63
2023-06-01T00:51:42.066Z,8.33
2023-06-01T00:54:09.276Z,9.67
2023-06-01T00:56:37.544Z,7.23
2023-06-01T00:59:06.145Z,10.00
2023-06-01T01:01:33.003Z,9.90
2023-06-01T01:04:01.956Z,6.00
2023-06-01T01:06:32.173Z,6.83
2023-06-01T01:09:31.688Z,7.30
2023-06-01T01:12:01.444Z,7.93
2023-06-01T01:14:33.375Z,9.90
2023-06-01T01:17:03.945Z,10.67
2023-06-01T01:19:43.084Z,7.10
2023-06-01T01:22:28.815Z,9.10
2023-06-01T01:24:55.577Z,8.00
2023-06-01T01:27:38.479Z,9.20
2023-06-01T01:30:07.449Z,10.43
2023-06-01T01:32:36.736Z,9.90
2023-06-01T01:35:05.380Z,11.10
2023-06-01T01:37:33.789Z,10.57
2023-06-01T01:40:01.008Z,7.50
2023-06-01T01:42:28.348Z,10.80
2023-06-01T01:44:55.332Z,10.77
2023-06-01T01:47:41.184Z,11.87
2023-06-01T01:50:10.586Z,11.43
2023-06-01T01:52:39.461Z,11.33
2023-06-01T01:55:09.040Z,10.17
2023-06-01T01:57:36.702Z,13.57
2023-06-01T02:00:04.500Z,11.23
2023-06-01T02:02:40.164Z,10.23
2023-06-01T02:05:07.146Z,10.60
2023-06-01T02:07:36.058Z,9.60
2023-06-01T02:10:05.638Z,9.63
2023-06-01T02:12:33.053Z,12.70
2023-06-01T02:14:59.835Z,11.00
2023-06-01T02:17:28.132Z,12.00
2023-06-01T02:19:54.982Z,15.20
2023-06-01T02:22:21.768Z,12.17
2023-06-01T02:24:48.675Z,10.67
2023-06-01T02:27:15.645Z,12.17
2023-06-01T02:29:42.618Z,13.80
2023-06-01T02:32:09.958Z,13.80
2023-06-01T02:34:38.293Z,15.23
2023-06-01T02:37:06.014Z,14.40
2023-06-01T02:39:32.833Z,14.80
2023-06-01T02:42:00.586Z,14.17
2023-06-01T02:44:27.317Z,18.30
2023-06-01T02:46:54.006Z,18.67
2023-06-01T02:49:21.218Z,19.33
2023-06-01T02:51:47.940Z,16.63
2023-06-01T02:54:23.343Z,15.70
2023-06-01T02:56:53.150Z,17.43
2023-06-01T02:59:19.822Z,18.60
2023-06-01T03:02:00.939Z,17.47
2023-06-01T03:04:30.432Z,15.67
2023-06-01T03:06:59.777Z,17.07
2023-06-01T03:09:43.673Z,15.70
2023-06-01T03:12:31.410Z,19.63
2023-06-01T03:14:58.263Z,18.00
2023-06-01T03:17:25.271Z,16.13
2023-06-01T03:19:52.051Z,16.87
2023-06-01T03:22:23.255Z,19.00
2023-06-01T03:24:51.933Z,17.03
2023-06-01T03:27:23.159Z,19.23
2023-06-01T03:29:50.310Z,17.63
2023-06-01T03:32:17.698Z,18.07
2023-06-01T03:34:44.471Z,18.83
2023-06-01T03:37:11.535Z,19.70
2023-06-01T03:39:40.370Z,20.60
2023-06-01T03:42:10.196Z,19.83
2023-06-01T03:44:40.216Z,20.23
2023-06-01T03:47:07.772Z,20.47
2023-06-01T03:49:34.671Z,20.37
2023-06-01T03:52:04.971Z,20.37
2023-06-01T03:54:32.774Z,23.10
2023-06-01T03:56:59.731Z,23.57
2023-06-01T03:59:26.443Z,25.87
2023-06-01T04:01:53.255Z,22.20
2023-06-01T04:04:22.139Z,25.30
2023-06-01T04:06:51.084Z,21.70
2023-06-01T04:09:18.640Z,23.57
2023-06-01T04:11:45.665Z,21.90
2023-06-01T04:14:13.093Z,20.67
2023-06-01T04:16:41.738Z,20.93
2023-06-01T04:19:08.575Z,20.00
2023-06-01T04:21:38.114Z,16.73
2023-06-01T04:24:05.009Z,19.43
2023-06-01T04:26:33.118Z,22.40
2023-06-01T04:29:00.813Z,20.10
2023-06-01T04:31:28.260Z,18.60
2023-06-01T04:33:57.616Z,23.37
2023-06-01T04:36:28.362Z,18.60
2023-06-01T04:39:00.880Z,25.70
2023-06-01T04:41:28.069Z,22.90
2023-06-01T04:43:55.310Z,19.60
2023-06-01T04:46:26.563Z,20.73
2023-06-01T04:48:59.919Z,19.37
2023-06-01T04:51:27.944Z,19.57
2023-06-01T04:53:55.557Z,23.23
2023-06-01T04:56:27.857Z,24.83
2023-06-01T04:58:55.179Z,23.43
2023-06-01T05:01:31.161Z,28.00
2023-06-01T05:03:58.784Z,34.10
2023-06-01T05:06:26.405Z,33.33
2023-06-01T05:08:54.510Z,50.83
2023-06-01T05:11:22.576Z,44.93
2023-06-01T05:13:52.482Z,52.73
2023-06-01T05:16:20.055Z,52.13
2023-06-01T05:18:47.915Z,56.67
2023-06-01T05:21:15.668Z,58.03
2023-06-01T05:23:42.371Z,56.67
2023-06-01T05:26:09.745Z,59.03
2023-06-01T05:28:37.551Z,69.63
2023-06-01T05:31:06.815Z,72.40
2023-06-01T05:33:40.049Z,78.53
2023-06-01T05:36:07.743Z,72.97
2023-06-01T05:38:34.789Z,75.43
2023-06-01T05:41:01.679Z,73.70
2023-06-01T05:43:28.846Z,78.07
2023-06-01T05:45:55.737Z,70.97
2023-06-01T05:48:22.533Z,86.50
2023-06-01T05:50:54.265Z,78.77
2023-06-01T05:53:24.309Z,83.83
2023-06-01T05:55:53.076Z,92.27
2023-06-01T05:58:20.633Z,90.17
2023-06-01T06:00:48.070Z,99.40
2023-06-01T06:03:14.875Z,99.20
2023-06-01T06:05:41.637Z,101.07
2023-06-01T06:08:08.878Z,85.77
2023-06-01T06:10:36.220Z,93.50
2023-06-01T06:13:02.953Z,99.77
2023-06-01T06:15:30.764Z,101.23
2023-06-01T06:17:57.505Z,97.13
2023-06-01T06:20:24.782Z,93.23
2023-06-01T06:22:52.371Z,92.07
2023-06-01T06:25:19.694Z,93.07
2023-06-01T06:27:46.775Z,81.30
2023-06-01T06:30:13.798Z,80.77
2023-06-01T06:32:40.693Z,79.87
2023-06-01T06:35:08.117Z,70.90
2023-06-01T06:37:35.189Z,66.40
2023-06-01T06:40:01.890Z,66.07
2023-06-01T06:42:28.864Z,68.80
2023-06-01T06:44:58.264Z,70.00
2023-06-01T06:47:26.571Z,61.90
2023-06-01T06:49:54.013Z,63.70
2023-06-01T06:52:20.743Z,64.03
2023-06-01T06:54:47.519Z,61.80
2023-06-01T06:57:14.210Z,58.53
2023-06-01T06:59:40.882Z,50.40
2023-06-01T07:02:07.609Z,49.10
2023-06-01T07:04:35.093Z,47.77
2023-06-01T07:07:04.951Z,50.03
2023-06-01T07:09:31.943Z,48.57
2023-06-01T07:11:58.696Z,46.73
2023-06-01T07:14:25.708Z,45.33
2023-06-01T07:16:52.520Z,48.40
2023-06-01T07:19:19.252Z,49.80
2023-06-01T07:21:46.568Z,44.20
2023-06-01T07:24:13.317Z,43.90
2023-06-01T07:26:40.049Z,40.43
2023-06-01T07:29:07.944Z,40.40
2023-06-01T07:31:36.593Z,41.27
2023-06-01T07:34:03.403Z,38.37
2023-06-01T07:36:38.276Z,37.37
2023-06-01T07:39:10.239Z,41.33
2023-06-01T07:41:37.076Z,34.63
2023-06-01T07:44:04.068Z,31.20
2023-06-01T07:46:31.116Z,29.37
2023-06-01T07:48:59.053Z,32.83
2023-06-01T07:51:25.873Z,33.27
2023-06-01T07:53:52.641Z,31.53
2023-06-01T07:56:19.678Z,33.80
2023-06-01T07:58:46.521Z,34.33
2023-06-01T08:01:13.207Z,35.40
2023-06-01T08:03:43.343Z,30.10
2023-06-01T08:06:10.194Z,30.57
2023-06-01T08:08:37.816Z,28.37
2023-06-01T08:11:04.660Z,26.23
2023-06-01T08:13:31.353Z,28.30
2023-06-01T08:15:58.605Z,27.70
2023-06-01T08:18:26.261Z,29.80
2023-06-01T08:20:53.838Z,29.03
2023-06-01T08:23:23.805Z,25.77
2023-06-01T08:25:50.833Z,23.60
2023-06-01T08:28:17.556Z,22.93
2023-06-01T08:30:44.373Z,23.80
2023-06-01T08:33:11.320Z,23.37
2023-06-01T08:38:06.437Z,24.60
2023-06-01T08:40:33.194Z,22.83
2023-06-01T08:43:02.656Z,22.77
2023-06-01T08:45:29.871Z,25.50
2023-06-01T08:47:58.424Z,21.57
2023-06-01T08:50:27.446Z,18.00
2023-06-01T08:52:57.118Z,16.60
2023-06-01T08:55:23.981Z,18.73
2023-06-01T08:57:50.725Z,21.53
2023-06-01T09:00:18.541Z,16.30
2023-06-01T09:02:45.411Z,18.37
2023-06-01T09:05:12.905Z,18.10
2023-06-01T09:07:40.139Z,22.73
2023-06-01T09:10:07.394Z,15.83
2023-06-01T09:12:34.734Z,20.60
2023-06-01T09:15:14.526Z,24.63
2023-06-01T09:17:41.424Z,15.93
2023-06-01T09:20:12.233Z,16.27
2023-06-01T09:22:41.856Z,17.33
2023-06-01T09:25:09.061Z,14.27
2023-06-01T09:27:52.259Z,13.63
2023-06-01T09:30:20.548Z,14.53
2023-06-01T09:32:51.975Z,13.67
2023-06-01T09:35:37.737Z,15.13
2023-06-01T09:38:07.199Z,12.57
2023-06-01T09:40:35.794Z,12.13
2023-06-01T09:43:03.911Z,14.10
2023-06-01T09:45:31.958Z,13.33
2023-06-01T09:48:16.718Z,11.77
2023-06-01T09:50:44.127Z,13.77
2023-06-01T09:53:10.834Z,13.37
2023-06-01T09:55:37.565Z,12.03
2023-06-01T09:58:24.561Z,16.23
2023-06-01T10:00:51.826Z,14.80
2023-06-01T10:03:22.544Z,12.00
2023-06-01T10:05:49.801Z,13.17
2023-06-01T10:08:18.082Z,13.23
2023-06-01T10:10:45.948Z,10.87
2023-06-01T10:13:13.524Z,10.37
2023-06-01T10:15:40.229Z,9.27
2023-06-01T10:18:07.794Z,11.17
2023-06-01T10:20:36.353Z,12.40
2023-06-01T10:23:03.233Z,8.70
2023-06-01T10:25:36.761Z,12.10
2023-06-01T10:28:05.463Z,12.07
2023-06-01T10:30:32.163Z,9.60
2023-06-01T10:32:58.908Z,12.87
2023-06-01T10:35:32.244Z,9.67
2023-06-01T10:38:08.137Z,12.10
2023-06-01T10:40:35.314Z,10.53
2023-06-01T10:43:02.095Z,11.83
2023-06-01T10:45:35.397Z,11.27
2023-06-01T10:48:02.757Z,13.60
2023-06-01T10:50:29.479Z,11.73
2023-06-01T10:52:57.017Z,11.03
2023-06-01T10:55:26.631Z,11.97
2023-06-01T10:58:13.583Z,14.50
2023-06-01T11:00:40.854Z,10.97
2023-06-01T11:03:07.987Z,11.53
2023-06-01T11:05:52.078Z,10.90
2023-06-01T11:08:19.054Z,11.13
2023-06-01T11:11:00.183Z,13.60
2023-06-01T11:13:29.100Z,11.60
2023-06-01T11:16:22.007Z,13.17
2023-06-01T11:19:01.948Z,11.60
2023-06-01T11:21:42.274Z,11.50
2023-06-01T11:24:13.041Z,9.40
2023-06-01T11:26:41.601Z,12.97
2023-06-01T11:29:10.531Z,10.77
2023-06-01T11:31:38.644Z,11.93
2023-06-01T11:34:05.722Z,10.80
2023-06-01T11:36:38.061Z,10.80
2023-06-01T11:39:19.762Z,11.80
2023-06-01T11:41:48.202Z,12.30
2023-06-01T11:44:14.920Z,10.33
2023-06-01T11:46:54.756Z,12.13
2023-06-01T11:49:22.617Z,9.37
2023-06-01T11:51:49.747Z,13.17
2023-06-01T11:54:16.474Z,11.83
2023-06-01T11:56:44.123Z,11.73
2023-06-01T11:59:11.101Z,12.23
2023-06-01T12:01:44.935Z,10.80
2023-06-01T12:04:15.612Z,13.57
2023-06-01T12:06:42.846Z,12.57
2023-06-01T12:09:10.268Z,11.30
2023-06-01T12:11:38.626Z,10.57
2023-06-01T12:14:07.492Z,11.40
2023-06-01T12:16:53.351Z,11.73
2023-06-01T12:19:20.171Z,10.70
2023-06-01T12:21:50.901Z,9.90
2023-06-01T12:24:36.573Z,9.03
2023-06-01T12:27:13.158Z,11.77
2023-06-01T12:29:42.721Z,11.37
2023-06-01T12:32:10.056Z,15.07
2023-06-01T12:34:37.732Z,14.03
2023-06-01T12:37:16.660Z,13.97
2023-06-01T12:39:43.481Z,15.27
2023-06-01T12:42:11.416Z,12.07
2023-06-01T12:44:40.717Z,11.87
2023-06-01T12:47:08.781Z,10.33
2023-06-01T12:49:35.858Z,11.93
2023-06-01T12:52:02.928Z,10.63
2023-06-01T12:54:29.712Z,12.93
2023-06-01T12:56:57.494Z,9.07
2023-06-01T12:59:24.415Z,11.37
2023-06-01T13:01:51.259Z,10.50
2023-06-01T13:04:18.361Z,8.77
2023-06-01T13:06:45.918Z,10.83
2023-06-01T13:09:12.672Z,10.03
2023-06-01T13:11:39.410Z,12.67
2023-06-01T13:14:06.173Z,12.87
2023-06-01T13:16:32.992Z,16.33
2023-06-01T13:19:01.480Z,10.90
2023-06-01T13:21:28.897Z,9.97
2023-06-01T13:23:55.921Z,10.10
2023-06-01T13:26:23.561Z,11.80
2023-06-01T13:28:51.258Z,10.00
2023-06-01T13:31:17.970Z,10.47
2023-06-01T13:33:44.694Z,12.63
2023-06-01T13:36:11.563Z,15.70
2023-06-01T13:38:38.251Z,9.93
2023-06-01T13:41:05.230Z,11.37
2023-06-01T13:43:32.218Z,12.57
2023-06-01T13:45:59.606Z,9.67
2023-06-01T13:48:26.750Z,11.23
2023-06-01T13:50:53.668Z,12.60
2023-06-01T13:53:20.465Z,12.07
2023-06-01T13:55:47.217Z,8.40
2023-06-01T13:58:14.015Z,8.43
2023-06-01T14:00:43.559Z,11.77
2023-06-01T14:03:10.728Z,8.07
2023-06-01T14:05:50.270Z,11.30
2023-06-01T14:08:20.909Z,9.43
2023-06-01T14:10:47.802Z,10.03
2023-06-01T14:13:14.664Z,7.60
2023-06-01T14:15:41.474Z,10.03
2023-06-01T14:18:08.434Z,6.97
2023-06-01T14:20:36.547Z,11.00
2023-06-01T14:23:04.793Z,9.70
2023-06-01T14:25:31.536Z,9.50
2023-06-01T14:27:58.366Z,8.97
2023-06-01T14:30:27.677Z,11.23
2023-06-01T14:32:54.902Z,9.90
2023-06-01T14:35:21.997Z,10.67
2023-06-01T14:37:50.410Z,11.23
2023-06-01T14:40:17.687Z,9.00
2023-06-01T14:42:44.662Z,8.57
2023-06-01T14:45:12.654Z,8.47
2023-06-01T14:47:43.028Z,9.40
2023-06-01T14:50:10.919Z,9.80
2023-06-01T14:52:37.671Z,9.03
2023-06-01T14:55:04.796Z,13.03
2023-06-01T14:57:31.514Z,10.83
2023-06-01T15:00:04.158Z,9.13
2023-06-01T15:02:32.514Z,10.77
2023-06-01T15:05:00.382Z,12.30
2023-06-01T15:07:27.127Z,9.33
2023-06-01T15:09:54.628Z,9.63
2023-06-01T15:12:21.920Z,10.53
2023-06-01T15:14:49.496Z,10.43
2023-06-01T15:17:16.501Z,10.03
2023-06-01T15:19:43.424Z,14.23
2023-06-01T15:22:10.294Z,12.73
2023-06-01T15:24:37.469Z,8.87
2023-06-01T15:27:04.483Z,9.40
2023-06-01T15:29:32.229Z,9.10
2023-06-01T15:31:59.094Z,11.10
2023-06-01T15:34:25.811Z,7.90
2023-06-01T15:36:53.027Z,9.83
2023-06-01T15:39:19.876Z,9.07
2023-06-01T15:41:46.610Z,8.87
2023-06-01T15:44:13.339Z,13.63
2023-06-01T15:46:40.102Z,8.73
2023-06-01T15:49:06.914Z,7.13
2023-06-01T15:51:34.529Z,11.23
2023-06-01T15:54:01.278Z,10.83
2023-06-01T15:56:28.199Z,16.50
2023-06-01T15:58:54.936Z,6.13
2023-06-01T16:01:29.164Z,6.53
2023-06-01T16:03:57.186Z,8.27
2023-06-01T16:06:24.021Z,10.13
2023-06-01T16:08:50.857Z,7.83
2023-06-01T16:11:17.644Z,8.87
2023-06-01T16:13:44.359Z,9.27
2023-06-01T16:16:11.077Z,6.60
2023-06-01T16:18:38.578Z,7.77
2023-06-01T16:21:05.864Z,9.43
2023-06-01T16:23:33.093Z,5.43
2023-06-01T16:25:59.819Z,9.53
2023-06-01T16:28:26.566Z,7.73
2023-06-01T16:30:53.298Z,7.87
2023-06-01T16:33:20.183Z,7.90
2023-06-01T16:35:46.924Z,9.53
2023-06-01T16:38:13.680Z,7.67
2023-06-01T16:40:40.997Z,8.07
2023-06-01T16:43:07.884Z,8.83
2023-06-01T16:45:34.592Z,7.10
2023-06-01T16:48:02.958Z,6.30
2023-06-01T16:50:29.870Z,7.13
2023-06-01T16:52:57.568Z,9.70
2023-06-01T16:55:25.420Z,7.70
2023-06-01T16:57:52.175Z,6.70
2023-06-01T17:00:19.037Z,9.80
2023-06-01T17:02:46.070Z,8.03
2023-06-01T17:05:13.289Z,8.10
2023-06-01T17:07:40.551Z,9.10
2023-06-01T17:10:07.426Z,7.93
2023-06-01T17:12:34.152Z,7.40
2023-06-01T17:15:00.988Z,5.27
2023-06-01T17:17:28.033Z,6.67
2023-06-01T17:19:56.116Z,7.20
2023-06-01T17:22:22.980Z,8.97
2023-06-01T17:24:49.750Z,7.60
2023-06-01T17:27:16.531Z,9.40
2023-06-01T17:29:43.280Z,9.40
2023-06-01T17:32:10.079Z,8.67
2023-06-01T17:34:37.028Z,9.00
2023-06-01T17:37:04.781Z,7.67
2023-06-01T17:39:31.605Z,8.70
2023-06-01T17:41:58.379Z,10.30
2023-06-01T17:44:28.509Z,8.80
2023-06-01T17:46:55.331Z,7.83
2023-06-01T17:49:24.905Z,10.40
2023-06-01T17:51:51.677Z,7.37
2023-06-01T17:54:18.342Z,7.03
2023-06-01T17:56:45.116Z,7.20
2023-06-01T17:59:11.838Z,10.93
2023-06-01T18:01:38.626Z,9.77
2023-06-01T18:04:05.697Z,8.40
2023-06-01T18:06:32.448Z,8.50
2023-06-01T18:08:59.203Z,8.90
2023-06-01T18:11:27.297Z,7.50
2023-06-01T18:13:54.238Z,7.77
2023-06-01T18:16:21.271Z,8.57
2023-06-01T18:18:48.149Z,5.73
2023-06-01T18:21:14.970Z,7.63
2023-06-01T18:23:47.750Z,11.20
2023-06-01T18:26:16.283Z,8.33
2023-06-01T18:28:43.571Z,6.40
2023-06-01T18:31:11.170Z,10.77
2023-06-01T18:33:37.970Z,7.00
2023-06-01T18:36:05.498Z,6.10
2023-06-01T18:38:32.530Z,9.53
2023-06-01T18:41:00.731Z,10.43
2023-06-01T18:43:27.493Z,11.13
2023-06-01T18:45:57.102Z,10.70
2023-06-01T18:48:24.142Z,10.37
2023-06-01T18:50:51.278Z,9.17
2023-06-01T18:53:18.592Z,8.33
2023-06-01T18:55:47.014Z,6.83
2023-06-01T18:58:17.567Z,9.17
2023-06-01T19:00:47.917Z,9.63
2023-06-01T19:03:15.806Z,10.47
2023-06-01T19:05:42.933Z,7.17
2023-06-01T19:08:11.981Z,9.37
2023-06-01T19:10:45.286Z,10.83
2023-06-01T19:13:13.586Z,8.37
2023-06-01T19:15:40.847Z,6.87
2023-06-01T19:18:08.364Z,9.17
2023-06-01T19:20:38.343Z,8.43
2023-06-01T19:23:11.448Z,12.33
2023-06-01T19:25:38.478Z,9.63
2023-06-01T19:28:05.358Z,12.27
2023-06-01T19:30:33.801Z,9.30
2023-06-01T19:33:01.531Z,10.17
2023-06-01T19:35:29.905Z,9.50
2023-06-01T19:37:56.863Z,9.13
2023-06-01T19:40:23.745Z,7.83
2023-06-01T19:42:50.731Z,9.83
2023-06-01T19:45:21.677Z,9.27
2023-06-01T19:47:49.685Z,10.07
2023-06-01T19:50:36.736Z,11.27
2023-06-01T19:53:04.358Z,8.47
2023-06-01T19:55:31.879Z,9.43
2023-06-01T19:57:59.043Z,12.47
2023-06-01T20:00:28.848Z,9.40
2023-06-01T20:02:56.761Z,10.07
2023-06-01T20:05:24.599Z,12.03
2023-06-01T20:07:55.622Z,11.57
2023-06-01T20:10:26.492Z,8.67
2023-06-01T20:12:57.359Z,11.33
2023-06-01T20:15:29.072Z,12.80
2023-06-01T20:17:56.528Z,10.60
2023-06-01T20:20:23.407Z,8.83
2023-06-01T20:22:50.128Z,11.83
2023-06-01T20:25:20.338Z,11.63
2023-06-01T20:27:47.188Z,10.27
2023-06-01T20:30:26.610Z,11.13
2023-06-01T20:32:54.460Z,12.97
2023-06-01T20:35:21.299Z,12.80
2023-06-01T20:37:48.026Z,12.93
2023-06-01T20:40:34.866Z,12.33
2023-06-01T20:43:01.598Z,8.30
2023-06-01T20:45:51.661Z,12.97
2023-06-01T20:48:26.837Z,11.07
2023-06-01T20:51:01.130Z,10.03
2023-06-01T20:53:28.374Z,10.10
2023-06-01T20:55:55.601Z,13.97
2023-06-01T20:58:28.398Z,12.07
2023-06-01T21:00:55.738Z,10.30
2023-06-01T21:03:22.660Z,11.13
2023-06-01T21:05:49.568Z,9.33
2023-06-01T21:11:06.464Z,11.23
2023-06-01T21:13:33.206Z,11.60
2023-06-01T21:16:01.208Z,12.60
2023-06-01T21:18:28.667Z,9.60
2023-06-01T21:20:55.554Z,10.70
2023-06-01T21:23:22.379Z,10.03
2023-06-01T21:25:49.160Z,8.83
2023-06-01T21:28:16.032Z,11.87
2023-06-01T21:30:42.867Z,7.80
2023-06-01T21:33:09.635Z,7.43
2023-06-01T21:35:39.251Z,20.07
2023-06-01T21:38:06.167Z,11.33
2023-06-01T21:40:33.132Z,13.50
2023-06-01T21:43:00.879Z,9.83
2023-06-01T21:45:27.749Z,9.07
2023-06-01T21:47:54.667Z,11.73
2023-06-01T21:50:21.667Z,13.17
2023-06-01T21:52:48.550Z,15.37
2023-06-01T21:55:15.577Z,12.73
2023-06-01T21:57:42.642Z,8.70
2023-06-01T22:00:14.024Z,10.63
2023-06-01T22:02:43.780Z,8.97
2023-06-01T22:05:11.221Z,9.60
2023-06-01T22:07:38.969Z,12.87
2023-06-01T22:10:06.802Z,8.73
2023-06-01T22:12:37.025Z,11.73
2023-06-01T22:15:04.907Z,10.63
2023-06-01T22:17:33.122Z,10.17
2023-06-01T22:19:59.896Z,10.90
2023-06-01T22:22:26.887Z,10.47
2023-06-01T22:24:56.795Z,9.47
2023-06-01T22:27:23.840Z,8.67
2023-06-01T22:29:50.717Z,10.60
2023-06-01T22:32:17.567Z,11.77
2023-06-01T22:34:45.348Z,13.50
2023-06-01T22:37:12.218Z,10.70
2023-06-01T22:39:39.112Z,11.80
2023-06-01T22:42:07.743Z,11.73
2023-06-01T22:44:34.857Z,12.93
2023-06-01T22:47:01.687Z,9.73
2023-06-01T22:49:28.843Z,10.73
2023-06-01T22:51:59.950Z,13.63
2023-06-01T22:54:30.112Z,14.53
2023-06-01T22:56:56.850Z,15.50
2023-06-01T22:59:23.640Z,12.73
2023-06-01T23:01:50.590Z,12.37
2023-06-01T23:04:20.711Z,12.07
2023-06-01T23:06:52.608Z,13.37
2023-06-01T23:09:20.133Z,13.20
2023-06-01T23:11:47.844Z,12.90
2023-06-01T23:14:15.464Z,13.70
2023-06-01T23:16:46.581Z,11.13
2023-06-01T23:19:13.880Z,10.40
2023-06-01T23:21:45.084Z,10.63
2023-06-01T23:24:11.995Z,10.27
2023-06-01T23:26:39.436Z,10.37
2023-06-01T23:29:06.721Z,9.17
2023-06-01T23:31:34.486Z,13.87
2023-06-01T23:34:05.665Z,9.93
2023-06-01T23:36:36.032Z,9.50
2023-06-01T23:39:05.678Z,9.00
2023-06-01T23:41:33.008Z,9.93
2023-06-01T23:43:59.918Z,9.20
2023-06-01T23:46:26.747Z,8.83
2023-06-01T23:48:54.466Z,11.40
2023-06-01T23:51:21.484Z,9.77
2023-06-01T23:53:48.228Z,9.50
2023-06-01T23:56:14.978Z,11.87
2023-06-01T23:58:41.747Z,10.87
